Aeroporto :
LOGIN :

Iscrizione | Disclaimer

   EN    FR    IT 

 










Sommario :    VFR   VFR Marginale   IFR   IFR Intensivo   IFR Molto Intensivo
Visibilità : 
Base nubi : 
>= 8 km
>= 3000ft
5 / 8 km
1000 / 3000 ft
1500m / 5 km
500 / 1000 ft
800 / 1500m
200 / 500 ft
< 800m
< 200 ft
Simboli :   Temporali  Nebbia  Neve Forte  Precipitazioni Forti  Vento > 20 kt
SIGMETs :   Varie  Temporali  Ghiacco  Turbolenza  Onda orograficha  Ceneri Vulcaniche






- Altitudine del aeroporto : 42 ft
- Codice IATA : KGD


UMKK - Khrabrava - Kaliningrad

ULTIMO METAR :
  • 091730Z 09003MPS CAVOK 17/12 Q1013 R24/95D NOSIG RMK QFE759/1012

METARs OBSOLETI :
  • 091700Z 09004MPS CAVOK 17/12 Q1013 R24/CLRD95 NOSIG RMK QFE759/1012
  • 091630Z 09004MPS CAVOK 18/11 Q1014 R24/95D NOSIG RMK QFE759/1012
  • 091600Z 06004MPS CAVOK 18/11 Q1014 R24/CLRD95 NOSIG RMK QFE759/1012
  • 091530Z 04003MPS 360V070 CAVOK 19/11 Q1014 R24/CLRD95 NOSIG RMK QFE759/1012
  • 091500Z 02003MPS 340V060 9999 FEW040 19/10 Q1014 R24/95D NOSIG RMK QFE759/1013

TAF TAF UMKK
Valido dal 09 a 18 ore il 10 a 18 ore UTC


091649Z 0918/1018 10003G08MPS 4000 -RA BR BKN011
TEMPO 0918/1006 1700 SHRA BR BKN004 BKN015CB
BECMG 0921/0923 14006G11MPS
BECMG 1003/1005 22005G10MPS
BECMG 1006/1008 26003G08MPS 9999 NSW
BECMG 1012/1014 20003G08MPS



MetMap, La meteo Aeronautica in un colpo d'occhio ! - Copyright ORBIFLY Dicembre 2007 - Disclaimer

ORBIFLY MET'MAP TEAM :

Programmazione e sviluppo : Alexandra Zaïnal
Concezione : Baudouin d'Aumeries
Aiuto per la programmazione : Marc-Olivier Méhu
Supporto tecnico e logistico : Manuel Goepfert
Aiuto per la traduzione : Arnaldo La Scala

Contatto : metmap@orbifly.com




FONTI E CREDITI :

   NOAA